createdAt,value
2023-01-26T00:02:04.162Z,-1.64
2023-01-26T00:04:32.114Z,-1.59
2023-01-26T00:07:00.107Z,-1.54
2023-01-26T00:09:28.023Z,-1.59
2023-01-26T00:11:56.428Z,-1.53
2023-01-26T00:14:24.363Z,-1.44
2023-01-26T00:16:58.031Z,-1.46
2023-01-26T00:19:26.203Z,-1.45
2023-01-26T00:21:54.099Z,-1.43
2023-01-26T00:24:25.570Z,-1.39
2023-01-26T00:26:53.933Z,-1.33
2023-01-26T00:29:21.978Z,-1.30
2023-01-26T00:31:50.745Z,-1.28
2023-01-26T00:34:18.756Z,-1.34
2023-01-26T00:36:46.728Z,-1.37
2023-01-26T00:39:14.614Z,-1.39
2023-01-26T00:42:01.330Z,-1.37
2023-01-26T00:44:29.418Z,-1.38
2023-01-26T00:46:57.293Z,-1.40
2023-01-26T00:49:25.835Z,-1.46
2023-01-26T00:51:53.816Z,-1.49
2023-01-26T00:54:21.775Z,-1.40
2023-01-26T00:56:49.785Z,-1.44
2023-01-26T00:59:17.822Z,-1.39
2023-01-26T01:01:47.886Z,-1.39
2023-01-26T01:04:17.444Z,-1.36
2023-01-26T01:06:45.640Z,-1.39
2023-01-26T01:09:13.614Z,-1.35
2023-01-26T01:11:43.125Z,-1.27
2023-01-26T01:14:13.152Z,-1.24
2023-01-26T01:16:41.473Z,-1.18
2023-01-26T01:19:15.602Z,-1.16
2023-01-26T01:21:44.456Z,-1.12
2023-01-26T01:24:12.419Z,-1.13
2023-01-26T01:26:40.487Z,-1.09
2023-01-26T01:29:12.862Z,-1.08
2023-01-26T01:31:41.677Z,-1.04
2023-01-26T01:34:10.691Z,-1.02
2023-01-26T01:36:41.365Z,-0.99
2023-01-26T01:39:09.439Z,-1.03
2023-01-26T01:41:37.410Z,-1.10
2023-01-26T01:44:31.808Z,-1.16
2023-01-26T01:47:03.376Z,-1.19
2023-01-26T01:49:34.742Z,-1.25
2023-01-26T01:52:11.062Z,-1.30
2023-01-26T01:54:48.908Z,-1.23
2023-01-26T01:57:27.854Z,-1.17
2023-01-26T02:00:09.386Z,-1.18
2023-01-26T02:02:44.997Z,-1.13
2023-01-26T02:05:34.071Z,-1.03
2023-01-26T02:08:03.049Z,-1.01
2023-01-26T02:10:31.307Z,-0.95
2023-01-26T02:13:00.936Z,-0.96
2023-01-26T02:15:29.621Z,-0.90
2023-01-26T02:17:57.998Z,-0.90
2023-01-26T02:20:30.593Z,-0.96
2023-01-26T02:23:23.379Z,-0.96
2023-01-26T02:25:56.155Z,-0.98
2023-01-26T02:28:26.197Z,-1.05
2023-01-26T02:30:54.572Z,-0.98
2023-01-26T02:33:27.771Z,-0.96
2023-01-26T02:36:00.583Z,-0.97
2023-01-26T02:38:33.998Z,-0.97
2023-01-26T02:41:07.310Z,-0.94
2023-01-26T02:43:38.810Z,-0.94
2023-01-26T02:46:07.146Z,-0.94
2023-01-26T02:48:59.432Z,-0.90
2023-01-26T02:51:30.855Z,-0.88
2023-01-26T02:54:02.502Z,-0.87
2023-01-26T02:56:40.140Z,-0.87
2023-01-26T02:59:08.263Z,-0.89
2023-01-26T03:01:36.284Z,-0.86
2023-01-26T03:04:06.871Z,-0.85
2023-01-26T03:06:35.101Z,-0.88
2023-01-26T03:09:03.029Z,-0.87
2023-01-26T03:11:42.122Z,-0.83
2023-01-26T03:14:15.359Z,-0.81
2023-01-26T03:16:43.634Z,-0.74
2023-01-26T03:19:32.291Z,-0.66
2023-01-26T03:22:19.625Z,-0.61
2023-01-26T03:25:06.594Z,-0.54
2023-01-26T03:27:40.733Z,-0.51
2023-01-26T03:30:11.626Z,-0.39
2023-01-26T03:32:40.876Z,-0.32
2023-01-26T03:35:22.644Z,-0.28
2023-01-26T03:37:54.764Z,-0.30
2023-01-26T03:41:08.008Z,-0.25
2023-01-26T03:43:55.972Z,-0.19
2023-01-26T03:46:42.964Z,-0.17
2023-01-26T03:49:30.243Z,-0.10
2023-01-26T03:52:17.649Z,-0.04
2023-01-26T03:55:08.575Z,-0.08
2023-01-26T03:57:37.092Z,-0.12
2023-01-26T04:00:06.319Z,-0.08
2023-01-26T04:03:01.639Z,-0.15
2023-01-26T04:05:49.659Z,-0.06
2023-01-26T04:08:21.828Z,-0.06
2023-01-26T04:10:53.991Z,-0.06
2023-01-26T04:13:41.854Z,-0.02
2023-01-26T04:16:31.504Z,0.04
2023-01-26T04:19:18.335Z,0.09
2023-01-26T04:21:47.564Z,0.07
2023-01-26T04:24:22.480Z,0.02
2023-01-26T04:26:54.968Z,0.06
2023-01-26T04:29:36.324Z,0.07
2023-01-26T04:32:04.948Z,0.11
2023-01-26T04:34:34.774Z,0.16
2023-01-26T04:37:06.001Z,0.15
2023-01-26T04:39:44.929Z,0.17
2023-01-26T04:42:13.104Z,0.18
2023-01-26T04:44:41.716Z,0.22
2023-01-26T04:47:10.655Z,0.26
2023-01-26T04:49:39.960Z,0.21
2023-01-26T04:52:08.440Z,0.20
2023-01-26T04:54:36.766Z,0.17
2023-01-26T04:57:04.812Z,0.18
2023-01-26T04:59:32.944Z,0.18
2023-01-26T05:02:02.290Z,0.15
2023-01-26T05:04:30.439Z,0.06
2023-01-26T05:06:58.565Z,0.00
2023-01-26T05:09:27.532Z,0.09
2023-01-26T05:12:33.173Z,0.05
2023-01-26T05:15:20.024Z,0.00
2023-01-26T05:18:18.202Z,-0.01
2023-01-26T05:20:55.052Z,0.01
2023-01-26T05:23:27.620Z,-0.06
2023-01-26T05:26:05.092Z,0.03
2023-01-26T05:28:41.437Z,0.03
2023-01-26T05:31:09.488Z,0.09
2023-01-26T05:33:39.785Z,0.02
2023-01-26T05:36:09.479Z,0.00
2023-01-26T05:38:37.941Z,-0.01
2023-01-26T05:41:07.512Z,0.04
2023-01-26T05:43:46.827Z,0.12
2023-01-26T05:46:33.628Z,0.17
2023-01-26T05:49:01.667Z,0.13
2023-01-26T05:51:30.381Z,0.07
2023-01-26T05:53:58.619Z,0.11
2023-01-26T05:56:27.163Z,0.17
2023-01-26T05:59:00.266Z,0.19
2023-01-26T06:01:28.391Z,0.14
2023-01-26T06:03:59.217Z,0.15
2023-01-26T06:06:32.116Z,0.16
2023-01-26T06:09:11.072Z,0.24
2023-01-26T06:11:56.896Z,0.28
2023-01-26T06:14:47.658Z,0.12
2023-01-26T06:17:17.621Z,0.09
2023-01-26T06:19:49.144Z,0.07
2023-01-26T06:22:17.891Z,0.03
2023-01-26T06:24:49.622Z,0.02
2023-01-26T06:27:18.691Z,0.07
2023-01-26T06:29:48.572Z,0.07
2023-01-26T06:32:16.967Z,-0.00
2023-01-26T06:34:46.680Z,-0.03
2023-01-26T06:37:15.544Z,-0.01
2023-01-26T06:39:44.951Z,0.00
2023-01-26T06:42:13.158Z,-0.04
2023-01-26T06:44:41.545Z,-0.12
2023-01-26T06:47:09.945Z,-0.08
2023-01-26T06:49:38.047Z,-0.11
2023-01-26T06:52:35.867Z,-0.05
2023-01-26T06:55:37.876Z,-0.01
2023-01-26T06:58:24.761Z,-0.03
2023-01-26T07:01:34.756Z,-0.08
2023-01-26T07:04:03.025Z,-0.16
2023-01-26T07:06:31.002Z,-0.25
2023-01-26T07:08:58.888Z,-0.28
2023-01-26T07:11:30.138Z,-0.20
2023-01-26T07:13:58.951Z,-0.21
2023-01-26T07:16:27.108Z,-0.21
2023-01-26T07:18:55.867Z,-0.14
2023-01-26T07:21:23.957Z,-0.18
2023-01-26T07:23:53.354Z,-0.32
2023-01-26T07:26:21.477Z,-0.36
2023-01-26T07:28:49.691Z,-0.36
2023-01-26T07:31:18.048Z,-0.21
2023-01-26T07:33:46.868Z,-0.31
2023-01-26T07:36:15.057Z,-0.30
2023-01-26T07:38:43.052Z,-0.25
2023-01-26T07:41:11.925Z,-0.48
2023-01-26T07:43:41.275Z,-0.48
2023-01-26T07:46:12.555Z,-0.45
2023-01-26T07:48:41.755Z,-0.48
2023-01-26T07:51:11.177Z,-0.44
2023-01-26T07:53:39.922Z,-0.39
2023-01-26T07:56:13.070Z,-0.40
2023-01-26T07:58:41.475Z,-0.41
2023-01-26T08:01:13.696Z,-0.50
2023-01-26T08:03:42.610Z,-0.46
2023-01-26T08:06:12.628Z,-0.47
2023-01-26T08:08:43.263Z,-0.38
2023-01-26T08:11:11.860Z,-0.32
2023-01-26T08:13:39.802Z,-0.34
2023-01-26T08:16:12.847Z,-0.27
2023-01-26T08:18:42.036Z,-0.23
2023-01-26T08:21:11.592Z,-0.26
2023-01-26T08:23:39.609Z,-0.28
2023-01-26T08:26:10.225Z,-0.22
2023-01-26T08:28:38.307Z,-0.23
2023-01-26T08:31:13.478Z,-0.20
2023-01-26T08:33:43.676Z,-0.16
2023-01-26T08:36:12.843Z,-0.26
2023-01-26T08:38:41.239Z,-0.30
2023-01-26T08:41:09.513Z,-0.23
2023-01-26T08:43:37.800Z,-0.29
2023-01-26T08:46:06.283Z,-0.28
2023-01-26T08:48:34.328Z,-0.24
2023-01-26T08:51:03.072Z,-0.30
2023-01-26T08:53:32.488Z,-0.30
2023-01-26T08:56:06.194Z,-0.26
2023-01-26T08:58:35.714Z,-0.22
2023-01-26T09:01:08.369Z,-0.22
2023-01-26T09:03:36.487Z,-0.24
2023-01-26T09:06:05.254Z,-0.36
2023-01-26T09:08:33.242Z,-0.31
2023-01-26T09:11:01.443Z,-0.22
2023-01-26T09:13:30.332Z,-0.33
2023-01-26T09:16:20.053Z,-0.11
2023-01-26T09:18:52.713Z,-0.19
2023-01-26T09:21:21.206Z,-0.15
2023-01-26T09:23:49.087Z,-0.10
2023-01-26T09:26:17.257Z,-0.14
2023-01-26T09:28:45.268Z,-0.16
2023-01-26T09:31:13.514Z,-0.24
2023-01-26T09:33:44.680Z,-0.23
2023-01-26T09:36:13.028Z,-0.18
2023-01-26T09:38:41.050Z,-0.14
2023-01-26T09:41:33.863Z,-0.11
2023-01-26T09:44:05.428Z,-0.03
2023-01-26T09:46:44.548Z,0.03
2023-01-26T09:49:15.583Z,0.07
2023-01-26T09:51:48.087Z,0.05
2023-01-26T09:54:33.507Z,0.05
2023-01-26T09:57:02.465Z,-0.01
2023-01-26T09:59:35.162Z,-0.07
2023-01-26T10:02:16.738Z,-0.08
2023-01-26T10:04:47.020Z,-0.15
2023-01-26T10:07:15.630Z,-0.15
2023-01-26T10:09:47.639Z,-0.16
2023-01-26T10:12:36.372Z,-0.30
2023-01-26T10:15:28.829Z,-0.31
2023-01-26T10:17:56.848Z,-0.38
2023-01-26T10:20:35.429Z,-0.31
2023-01-26T10:23:03.524Z,-0.29
2023-01-26T10:25:36.788Z,-0.25
2023-01-26T10:28:15.585Z,-0.22
2023-01-26T10:30:45.647Z,-0.18
2023-01-26T10:33:40.633Z,-0.14
2023-01-26T10:36:09.306Z,-0.12
2023-01-26T10:38:37.923Z,-0.12
2023-01-26T10:41:16.983Z,-0.13
2023-01-26T10:43:59.181Z,-0.13
2023-01-26T10:46:45.528Z,-0.16
2023-01-26T10:49:16.292Z,-0.11
2023-01-26T10:52:06.412Z,-0.07
2023-01-26T10:54:36.988Z,-0.16
2023-01-26T10:57:11.950Z,-0.12
2023-01-26T10:59:50.382Z,-0.09
2023-01-26T11:02:29.227Z,-0.06
2023-01-26T11:05:09.607Z,0.03
2023-01-26T11:07:42.572Z,0.05
2023-01-26T11:10:19.676Z,0.05
2023-01-26T11:12:48.827Z,0.11
2023-01-26T11:15:24.837Z,0.10
2023-01-26T11:17:58.757Z,0.07
2023-01-26T11:21:11.704Z,0.05
2023-01-26T11:24:13.198Z,0.05
2023-01-26T11:26:53.302Z,0.05
2023-01-26T11:29:49.220Z,0.08
2023-01-26T11:32:39.718Z,0.11
2023-01-26T11:35:27.751Z,0.15
2023-01-26T11:38:33.829Z,0.13
2023-01-26T11:41:54.341Z,0.09
2023-01-26T11:44:36.139Z,0.07
2023-01-26T14:16:37.300Z,-0.84
2023-01-26T14:19:18.574Z,-0.69
2023-01-26T14:21:47.680Z,-0.57
2023-01-26T14:24:17.019Z,-0.47
2023-01-26T14:26:45.299Z,-0.42
2023-01-26T14:29:19.636Z,-0.33
2023-01-26T14:31:48.710Z,-0.24
2023-01-26T14:34:20.532Z,-0.18
2023-01-26T14:36:48.682Z,-0.18
2023-01-26T14:39:18.334Z,-0.13
2023-01-26T14:41:46.649Z,-0.07
2023-01-26T14:44:14.724Z,-0.01
2023-01-26T14:46:57.285Z,0.04
2023-01-26T14:49:50.854Z,0.08
2023-01-26T14:52:33.990Z,0.09
2023-01-26T14:55:06.585Z,0.10
2023-01-26T14:57:34.732Z,0.14
2023-01-26T15:00:08.782Z,0.15
2023-01-26T15:02:38.186Z,0.16
2023-01-26T15:05:13.045Z,0.17
2023-01-26T15:07:52.041Z,0.14
2023-01-26T15:10:39.062Z,0.14
2023-01-26T15:13:21.854Z,0.17
2023-01-26T15:16:05.123Z,0.22
2023-01-26T15:18:34.667Z,0.22
2023-01-26T15:21:05.655Z,0.19
2023-01-26T15:23:37.614Z,0.16
2023-01-26T15:26:10.421Z,0.13
2023-01-26T15:28:38.823Z,0.11
2023-01-26T15:31:07.125Z,0.16
2023-01-26T15:33:54.860Z,0.20
2023-01-26T15:36:31.038Z,0.20
2023-01-26T15:39:04.547Z,0.20
2023-01-26T15:41:32.962Z,0.16
2023-01-26T15:44:00.994Z,0.14
2023-01-26T15:46:31.194Z,0.16
2023-01-26T15:48:59.485Z,0.16
2023-01-26T15:51:29.720Z,0.19
2023-01-26T15:53:57.591Z,0.20
2023-01-26T15:56:25.695Z,0.24
2023-01-26T15:58:53.833Z,0.23
2023-01-26T16:01:22.875Z,0.24
2023-01-26T16:03:51.266Z,0.17
2023-01-26T16:06:28.342Z,0.18
2023-01-26T16:08:56.553Z,0.21
2023-01-26T16:11:35.499Z,0.21
2023-01-26T16:14:04.498Z,0.23
2023-01-26T16:16:32.904Z,0.27
2023-01-26T16:19:02.168Z,0.31
2023-01-26T16:21:33.735Z,0.33
2023-01-26T16:24:02.082Z,0.33
2023-01-26T16:26:30.405Z,0.28
2023-01-26T16:28:58.604Z,0.24
2023-01-26T16:31:29.941Z,0.25
2023-01-26T16:34:05.621Z,0.22
2023-01-26T16:36:34.912Z,0.18
2023-01-26T16:39:02.825Z,0.16
2023-01-26T16:41:34.912Z,0.14
2023-01-26T16:44:03.521Z,0.15
2023-01-26T16:46:31.501Z,0.12
2023-01-26T16:48:59.549Z,0.12
2023-01-26T16:51:31.292Z,0.08
2023-01-26T16:53:59.468Z,0.04
2023-01-26T16:56:28.650Z,0.04
2023-01-26T16:58:56.642Z,0.02
2023-01-26T17:01:28.268Z,0.04
2023-01-26T17:03:56.295Z,0.02
2023-01-26T17:06:24.935Z,0.01
2023-01-26T17:08:52.954Z,0.01
2023-01-26T17:11:23.209Z,0.04
2023-01-26T17:13:51.435Z,0.07
2023-01-26T17:16:21.325Z,0.02
2023-01-26T17:18:49.431Z,-0.01
2023-01-26T17:21:18.714Z,0.04
2023-01-26T17:23:53.519Z,0.02
2023-01-26T17:26:21.618Z,-0.04
2023-01-26T17:28:54.001Z,-0.01
2023-01-26T17:31:23.833Z,0.03
2023-01-26T17:33:51.964Z,0.04
2023-01-26T17:36:20.018Z,0.09
2023-01-26T17:38:48.895Z,0.12
2023-01-26T17:41:17.208Z,0.13
2023-01-26T17:43:45.485Z,0.15
2023-01-26T17:46:17.077Z,0.20
2023-01-26T17:48:45.846Z,0.16
2023-01-26T17:51:18.029Z,0.15
2023-01-26T22:12:43.388Z,-0.74
2023-01-26T22:15:11.903Z,-0.76
2023-01-26T22:17:42.683Z,-0.78
2023-01-26T22:20:14.338Z,-0.77
2023-01-26T22:22:42.454Z,-0.74
2023-01-26T22:25:12.944Z,-0.72
2023-01-26T22:27:41.333Z,-0.68
2023-01-26T22:30:10.744Z,-0.63
2023-01-26T22:32:38.963Z,-0.60
2023-01-26T22:35:09.050Z,-0.59
2023-01-26T22:37:37.466Z,-0.56
2023-01-26T22:40:06.280Z,-0.52
2023-01-26T22:42:34.234Z,-0.47
2023-01-26T22:45:02.479Z,-0.45
2023-01-26T22:47:31.041Z,-0.44
2023-01-26T22:49:59.276Z,-0.41
2023-01-26T22:52:27.368Z,-0.40
2023-01-26T22:54:55.420Z,-0.38
2023-01-26T22:57:23.341Z,-0.36
2023-01-26T22:59:51.524Z,-0.34
2023-01-26T23:02:19.624Z,-0.32
2023-01-26T23:04:47.828Z,-0.30
2023-01-26T23:07:15.804Z,-0.28
2023-01-26T23:09:45.402Z,-0.28
2023-01-26T23:12:14.108Z,-0.24
2023-01-26T23:14:42.220Z,-0.25
2023-01-26T23:17:11.313Z,-0.24
2023-01-26T23:19:39.304Z,-0.26
2023-01-26T23:22:07.216Z,-0.25
2023-01-26T23:24:35.257Z,-0.25
2023-01-26T23:27:03.178Z,-0.23
2023-01-26T23:29:31.171Z,-0.21
2023-01-26T23:31:59.385Z,-0.21
2023-01-26T23:34:27.307Z,-0.20
2023-01-26T23:36:56.214Z,-0.19
2023-01-26T23:39:24.126Z,-0.18
2023-01-26T23:41:51.993Z,-0.18
2023-01-26T23:44:20.306Z,-0.19
2023-01-26T23:46:48.381Z,-0.20
2023-01-26T23:49:18.858Z,-0.21
2023-01-26T23:51:46.811Z,-0.20
2023-01-26T23:54:14.817Z,-0.18
2023-01-26T23:56:42.921Z,-0.19
2023-01-26T23:59:10.965Z,-0.17
